Weather at Meadow Lake Airport

Public forecast

Using degrees Fahrenheit for public forecast. Weather courtesy of forecast.io.

Closest aviation weather report (METAR) to Meadow Lake Airport

Closest report is City of Colorado Springs Municipal Airport, 10.4 nm (19.3 km) SW.

2024/07/14 03:54 (retrieved 9 minutes ago)

KCOS 140354Z 19013KT 10SM FEW140 SCT200 26/02 A3033 RMK AO2 SLP155 CB DSNT S MOV S T02610017

Closest aviation forecast (TAF) to Meadow Lake Airport

Forecast is more than 12 hours old.

Closest forecast is USAF Academy Airfield, 11.8 nm (21.9 km) W.

2024/07/12 19:24 (retrieved 1 day ago)

TAF TAF KAFF 121910Z 1219/1401 35012G18KT 9999 FEW150 510005 QNH3018INS WND 330V090 TEMPO 1219/1301 01015G25KT 520004 BECMG 1302/1303 35009KT 9999 FEW150 QNH3024INS BECMG 1315/1316 36010G18KT 9999 SCT150 510005 QNH3033INS BECMG 1319/1320 03014KT 9999 VCSH SCT150 510005 QNH3032INS WND 330V090 DRY MICROBURST CONDS EXIST TEMPO 1322/1401 VRB25G35KT TX37/1222Z TN17/1312Z LAST NO AMDS AFT 1221 NEXT 1511